createdAt,value
2023-01-11T00:00:30.111Z,10.74
2023-01-11T00:02:34.276Z,10.83
2023-01-11T00:04:36.006Z,10.82
2023-01-11T00:06:37.729Z,10.80
2023-01-11T00:08:39.651Z,10.84
2023-01-11T00:10:41.871Z,10.83
2023-01-11T00:12:43.569Z,10.81
2023-01-11T00:14:45.116Z,10.77
2023-01-11T00:16:46.790Z,10.78
2023-01-11T00:18:49.739Z,10.79
2023-01-11T00:20:51.435Z,10.84
2023-01-11T00:22:53.107Z,10.85
2023-01-11T00:24:54.733Z,10.85
2023-01-11T00:26:56.353Z,10.82
2023-01-11T00:28:57.978Z,10.76
2023-01-11T00:30:59.942Z,10.79
2023-01-11T00:33:01.745Z,10.87
2023-01-11T00:35:05.712Z,10.81
2023-01-11T00:37:07.404Z,10.84
2023-01-11T00:39:09.060Z,10.77
2023-01-11T00:41:12.612Z,10.77
2023-01-11T00:43:14.469Z,10.72
2023-01-11T00:45:16.280Z,10.69
2023-01-11T00:47:20.064Z,10.69
2023-01-11T00:49:21.916Z,10.69
2023-01-11T00:51:24.924Z,10.69
2023-01-11T00:53:26.549Z,10.74
2023-01-11T00:55:28.282Z,10.72
2023-01-11T00:57:29.926Z,10.70
2023-01-11T00:59:31.547Z,10.67
2023-01-11T01:01:33.267Z,10.77
2023-01-11T01:03:34.893Z,10.74
2023-01-11T01:05:38.208Z,10.75
2023-01-11T01:07:41.770Z,10.80
2023-01-11T01:09:43.379Z,10.76
2023-01-11T01:11:45.147Z,10.80
2023-01-11T01:13:46.861Z,10.78
2023-01-11T01:15:48.599Z,10.79
2023-01-11T01:17:53.553Z,10.80
2023-01-11T01:19:55.160Z,10.77
2023-01-11T01:21:58.047Z,10.77
2023-01-11T01:24:01.293Z,10.77
2023-01-11T01:26:03.311Z,10.76
2023-01-11T01:28:05.154Z,10.81
2023-01-11T01:30:08.160Z,10.90
2023-01-11T01:32:09.914Z,10.84
2023-01-11T01:34:11.969Z,10.86
2023-01-11T01:36:13.689Z,10.84
2023-01-11T01:38:15.527Z,10.80
2023-01-11T01:40:18.745Z,10.80
2023-01-11T01:42:21.090Z,10.84
2023-01-11T01:44:52.762Z,10.89
2023-01-11T01:46:57.353Z,10.92
2023-01-11T01:49:01.809Z,10.88
2023-01-11T01:51:05.595Z,10.92
2023-01-11T01:53:11.271Z,10.99
2023-01-11T01:55:19.660Z,10.91
2023-01-11T01:57:27.274Z,10.91
2023-01-11T01:59:31.712Z,10.95
2023-01-11T02:01:33.548Z,10.95
2023-01-11T02:03:35.244Z,10.93
2023-01-11T02:05:37.310Z,10.94
2023-01-11T02:07:41.874Z,10.89
2023-01-11T02:09:49.660Z,10.93
2023-01-11T02:11:51.642Z,10.89
2023-01-11T02:14:00.506Z,10.87
2023-01-11T02:16:02.218Z,10.91
2023-01-11T02:18:05.799Z,11.00
2023-01-11T02:20:25.482Z,10.92
2023-01-11T02:22:50.876Z,10.95
2023-01-11T02:25:21.651Z,10.97
2023-01-11T02:27:34.768Z,10.97
2023-01-11T02:29:49.742Z,10.99
2023-01-11T02:31:57.878Z,10.99
2023-01-11T02:34:12.337Z,10.92
2023-01-11T02:36:23.141Z,10.99
2023-01-11T02:38:29.681Z,10.93
2023-01-11T02:40:41.182Z,10.96
2023-01-11T02:42:50.221Z,10.93
2023-01-11T02:45:04.703Z,11.01
2023-01-11T02:47:09.671Z,11.08
2023-01-11T02:49:18.877Z,11.09
2023-01-11T02:51:27.260Z,11.08
2023-01-11T02:53:36.589Z,11.05
2023-01-11T02:55:43.982Z,10.99
2023-01-11T02:57:48.025Z,11.05
2023-01-11T02:59:50.918Z,11.03
2023-01-11T03:01:54.096Z,11.05
2023-01-11T03:03:58.084Z,11.01
2023-01-11T03:06:11.599Z,11.05
2023-01-11T03:08:33.494Z,11.06
2023-01-11T03:10:45.964Z,11.00
2023-01-11T03:13:04.322Z,11.09
2023-01-11T03:15:20.754Z,11.14
2023-01-11T03:17:36.520Z,11.15
2023-01-11T03:19:43.610Z,11.15
2023-01-11T03:21:54.870Z,11.17
2023-01-11T03:24:05.454Z,11.09
2023-01-11T03:26:17.889Z,11.10
2023-01-11T03:28:26.644Z,11.16
2023-01-11T03:30:35.673Z,11.14
2023-01-11T03:32:45.566Z,11.22
2023-01-11T03:34:55.833Z,11.29
2023-01-11T03:37:05.067Z,11.30
2023-01-11T03:39:12.168Z,11.37
2023-01-11T03:41:19.583Z,11.38
2023-01-11T03:43:24.515Z,11.45
2023-01-11T03:45:27.868Z,11.39
2023-01-11T03:47:30.452Z,11.46
2023-01-11T03:49:37.556Z,11.46
2023-01-11T03:51:43.373Z,11.47
2023-01-11T03:53:47.858Z,11.44
2023-01-11T03:55:53.668Z,11.37
2023-01-11T03:57:57.723Z,11.32
2023-01-11T04:00:00.265Z,11.34
2023-01-11T04:02:02.515Z,11.37
2023-01-11T04:04:04.393Z,11.41
2023-01-11T04:06:10.669Z,11.41
2023-01-11T04:08:12.445Z,11.31
2023-01-11T04:10:14.137Z,11.32
2023-01-11T04:12:16.221Z,11.32
2023-01-11T04:14:17.802Z,11.42
2023-01-11T04:16:19.778Z,11.42
2023-01-11T04:18:21.743Z,11.42
2023-01-11T04:20:23.421Z,11.42
2023-01-11T04:22:26.511Z,11.42
2023-01-11T04:24:29.912Z,11.50
2023-01-11T04:26:31.551Z,11.43
2023-01-11T04:28:52.797Z,11.47
2023-01-11T04:30:58.545Z,11.46
2023-01-11T04:33:00.279Z,11.45
2023-01-11T04:35:02.024Z,11.53
2023-01-11T04:37:03.754Z,11.46
2023-01-11T04:39:07.046Z,11.49
2023-01-11T04:41:09.016Z,11.52
2023-01-11T04:43:10.725Z,11.38
2023-01-11T04:45:12.495Z,11.34
2023-01-11T04:47:17.607Z,11.38
2023-01-11T04:49:19.321Z,11.42
2023-01-11T04:51:21.008Z,11.42
2023-01-11T04:53:22.724Z,11.41
2023-01-11T04:55:25.769Z,11.42
2023-01-11T04:57:27.403Z,11.49
2023-01-11T04:59:29.118Z,11.52
2023-01-11T05:01:31.077Z,11.48
2023-01-11T05:03:32.758Z,11.48
2023-01-11T05:05:34.701Z,11.55
2023-01-11T05:07:36.416Z,11.53
2023-01-11T05:09:40.429Z,11.54
2023-01-11T05:11:47.068Z,11.56
2023-01-11T05:13:48.782Z,11.55
2023-01-11T05:15:51.615Z,11.58
2023-01-11T05:17:56.297Z,11.56
2023-01-11T05:19:58.255Z,11.55
2023-01-11T05:22:00.055Z,11.57
2023-01-11T05:24:03.739Z,11.58
2023-01-11T05:26:10.204Z,11.60
2023-01-11T05:28:13.457Z,11.61
2023-01-11T05:30:16.854Z,11.60
2023-01-11T05:32:18.600Z,11.58
2023-01-11T05:34:20.471Z,11.58
2023-01-11T05:36:23.442Z,11.58
2023-01-11T05:38:27.652Z,11.63
2023-01-11T05:40:32.455Z,11.60
2023-01-11T05:42:34.160Z,11.63
2023-01-11T05:44:37.221Z,11.65
2023-01-11T05:46:40.698Z,11.64
2023-01-11T05:48:42.365Z,11.59
2023-01-11T05:50:43.963Z,11.61
2023-01-11T05:52:46.377Z,11.64
2023-01-11T05:54:50.940Z,11.63
2023-01-11T05:56:53.005Z,11.64
2023-01-11T05:58:54.795Z,11.62
2023-01-11T06:00:58.074Z,11.56
2023-01-11T06:03:00.929Z,11.56
2023-01-11T06:05:02.907Z,11.63
2023-01-11T06:07:04.643Z,11.56
2023-01-11T06:09:06.351Z,11.57
2023-01-11T06:11:09.429Z,11.62
2023-01-11T06:13:11.108Z,11.56
2023-01-11T06:15:12.857Z,11.53
2023-01-11T06:17:16.000Z,11.58
2023-01-11T06:19:20.662Z,11.61
2023-01-11T06:21:22.321Z,11.64
2023-01-11T06:23:24.816Z,11.63
2023-01-11T06:25:26.607Z,11.67
2023-01-11T06:27:28.197Z,11.66
2023-01-11T06:29:32.791Z,11.67
2023-01-11T06:31:34.516Z,11.69
2023-01-11T06:33:37.713Z,11.68
2023-01-11T06:35:41.103Z,11.69
2023-01-11T06:37:42.890Z,11.70
2023-01-11T06:39:44.577Z,11.74
2023-01-11T06:41:46.276Z,11.75
2023-01-11T06:43:47.887Z,11.77
2023-01-11T06:45:49.676Z,11.73
2023-01-11T06:47:51.446Z,11.76
2023-01-11T06:49:54.492Z,11.77
2023-01-11T06:51:56.196Z,11.78
2023-01-11T06:53:57.853Z,11.85
2023-01-11T06:55:59.596Z,11.94
2023-01-11T06:58:02.997Z,11.92
2023-01-11T07:00:05.416Z,11.83
2023-01-11T07:02:09.218Z,11.87
2023-01-11T07:04:10.898Z,11.89
2023-01-11T07:06:13.947Z,11.94
2023-01-11T07:08:16.149Z,11.96
2023-01-11T07:10:17.973Z,11.99
2023-01-11T07:12:19.692Z,12.05
2023-01-11T07:14:21.337Z,12.01
2023-01-11T07:16:23.108Z,12.07
2023-01-11T07:18:24.774Z,12.10
2023-01-11T07:20:27.092Z,12.12
2023-01-11T07:22:32.959Z,12.14
2023-01-11T07:24:34.787Z,12.19
2023-01-11T07:26:39.650Z,12.20
2023-01-11T07:28:41.387Z,12.22
2023-01-11T07:30:57.745Z,12.14
2023-01-11T07:33:00.959Z,12.10
2023-01-11T07:35:02.646Z,12.08
2023-01-11T07:37:04.501Z,12.03
2023-01-11T07:39:07.840Z,12.13
2023-01-11T07:41:09.632Z,12.18
2023-01-11T07:43:14.747Z,12.17
2023-01-11T07:45:16.689Z,12.18
2023-01-11T07:47:18.451Z,12.18
2023-01-11T07:49:20.153Z,12.26
2023-01-11T07:51:21.863Z,12.33
2023-01-11T07:53:23.849Z,12.39
2023-01-11T07:55:26.928Z,12.42
2023-01-11T07:57:28.798Z,12.40
2023-01-11T07:59:30.432Z,12.36
2023-01-11T08:01:32.093Z,12.44
2023-01-11T08:03:33.853Z,12.48
2023-01-11T08:05:36.131Z,12.43
2023-01-11T08:07:37.780Z,12.48
2023-01-11T08:09:39.445Z,12.45
2023-01-11T08:11:42.427Z,12.46
2023-01-11T08:13:44.061Z,12.45
2023-01-11T08:15:45.727Z,12.46
2023-01-11T08:17:47.381Z,12.47
2023-01-11T08:19:49.069Z,12.47
2023-01-11T08:21:50.850Z,12.52
2023-01-11T08:23:53.122Z,12.44
2023-01-11T08:25:56.887Z,12.44
2023-01-11T08:28:01.119Z,12.44
2023-01-11T08:30:04.436Z,12.46
2023-01-11T08:32:06.285Z,12.49
2023-01-11T08:34:08.406Z,12.40
2023-01-11T08:36:13.482Z,12.47
2023-01-11T08:38:15.114Z,12.42
2023-01-11T08:40:17.012Z,12.43
2023-01-11T08:42:18.639Z,12.39
2023-01-11T08:44:33.268Z,12.37
2023-01-11T08:46:36.061Z,12.32
2023-01-11T08:48:37.948Z,12.26
2023-01-11T08:50:39.535Z,12.24
2023-01-11T08:52:41.420Z,12.26
2023-01-11T08:54:42.984Z,12.25
2023-01-11T08:56:44.658Z,12.31
2023-01-11T08:58:46.396Z,12.28
2023-01-11T09:00:49.482Z,12.24
2023-01-11T09:02:51.192Z,12.19
2023-01-11T09:04:52.880Z,12.32
2023-01-11T09:06:54.556Z,12.38
2023-01-11T09:08:56.167Z,12.31
2023-01-11T09:10:57.916Z,12.32
2023-01-11T09:12:59.620Z,12.32
2023-01-11T09:15:01.301Z,12.32
2023-01-11T09:17:04.403Z,12.32
2023-01-11T09:19:09.110Z,12.29
2023-01-11T09:21:10.816Z,12.31
2023-01-11T09:23:12.458Z,12.35
2023-01-11T09:25:15.025Z,12.42
2023-01-11T09:27:16.869Z,12.32
2023-01-11T09:29:19.642Z,12.29
2023-01-11T09:31:21.308Z,12.27
2023-01-11T09:33:24.417Z,12.26
2023-01-11T09:35:26.127Z,12.26
2023-01-11T09:37:27.809Z,12.25
2023-01-11T09:39:29.584Z,12.36
2023-01-11T09:41:48.954Z,12.35
2023-01-11T09:43:59.906Z,12.42
2023-01-11T09:46:04.724Z,12.33
2023-01-11T09:48:14.940Z,12.33
2023-01-11T09:50:23.071Z,12.26
2023-01-11T09:52:29.532Z,12.30
2023-01-11T09:54:31.907Z,12.30
2023-01-11T09:56:40.413Z,12.26
2023-01-11T09:58:55.224Z,12.37
2023-01-11T10:01:04.386Z,12.38
2023-01-11T10:03:57.366Z,12.40
2023-01-11T10:06:10.317Z,12.43
2023-01-11T10:18:40.472Z,12.38
2023-01-11T10:19:30.785Z,12.39
2023-01-11T10:21:28.101Z,12.36
2023-01-11T10:23:40.110Z,12.39
2023-01-11T10:25:44.885Z,12.31
2023-01-11T10:27:53.837Z,12.24
2023-01-11T10:29:59.166Z,12.27
2023-01-11T10:32:02.385Z,12.29
2023-01-11T10:34:06.287Z,12.33
2023-01-11T10:36:15.434Z,12.38
2023-01-11T10:38:28.038Z,12.42
2023-01-11T10:40:37.825Z,12.34
2023-01-11T10:42:47.706Z,12.40
2023-01-11T10:44:57.389Z,12.42
2023-01-11T10:46:59.827Z,12.47
2023-01-11T10:49:20.568Z,12.46
2023-01-11T10:51:25.690Z,12.47
2023-01-11T10:53:36.628Z,12.48
2023-01-11T10:55:47.007Z,12.55
2023-01-11T10:58:03.621Z,12.64
2023-01-11T11:00:28.795Z,12.61
2023-01-11T11:02:47.335Z,12.60
2023-01-11T11:05:00.611Z,12.46
2023-01-11T11:07:10.271Z,12.40
2023-01-11T11:09:21.239Z,12.54
2023-01-11T11:11:29.681Z,12.56
2023-01-11T11:13:45.269Z,12.63
2023-01-11T11:15:54.926Z,12.66
2023-01-11T11:17:56.988Z,12.70
2023-01-11T11:20:00.062Z,12.73
2023-01-11T11:22:01.781Z,12.75
2023-01-11T11:24:08.091Z,12.68
2023-01-11T11:26:11.500Z,12.72
2023-01-11T11:28:26.425Z,12.77
2023-01-11T11:30:31.493Z,12.74
2023-01-11T11:32:37.772Z,12.70
2023-01-11T11:34:47.057Z,12.72
2023-01-11T11:36:51.812Z,12.75
2023-01-11T11:39:10.228Z,12.80
2023-01-11T11:41:19.077Z,12.83
2023-01-11T11:43:23.002Z,12.80
2023-01-11T11:45:26.422Z,12.78
2023-01-11T11:47:29.096Z,12.78
2023-01-11T11:49:32.025Z,12.85
2023-01-11T11:51:33.926Z,12.86
2023-01-11T11:53:40.210Z,12.84
2023-01-11T11:55:41.969Z,12.83
2023-01-11T11:57:49.120Z,12.74
2023-01-11T12:00:01.107Z,12.71
2023-01-11T12:02:05.762Z,12.75
2023-01-11T12:04:13.924Z,12.78
2023-01-11T12:06:22.241Z,12.81
2023-01-11T12:08:24.739Z,12.95
2023-01-11T12:10:32.098Z,12.94
2023-01-11T12:12:33.855Z,12.95
2023-01-11T12:14:36.997Z,12.96
2023-01-11T12:16:41.359Z,12.88
2023-01-11T12:18:43.215Z,12.91
2023-01-11T12:20:44.982Z,12.96
2023-01-11T12:22:48.565Z,13.02
2023-01-11T12:25:05.701Z,13.04
2023-01-11T12:27:16.775Z,13.05
2023-01-11T12:29:49.515Z,13.04
2023-01-11T12:32:20.784Z,13.09
2023-01-11T12:34:34.179Z,13.07
2023-01-11T12:36:44.291Z,13.06
2023-01-11T12:39:00.342Z,13.08
2023-01-11T12:41:23.509Z,13.05
2023-01-11T12:43:47.610Z,13.02
2023-01-11T12:46:01.753Z,12.98
2023-01-11T12:48:21.637Z,12.98
2023-01-11T12:50:26.479Z,12.93
2023-01-11T12:52:46.717Z,13.08
2023-01-11T12:55:09.792Z,13.14
2023-01-11T12:57:23.084Z,13.15
2023-01-11T12:59:52.748Z,13.07
2023-01-11T13:02:13.477Z,13.13
2023-01-11T13:04:31.697Z,13.19
2023-01-11T13:06:39.869Z,13.14
2023-01-11T13:08:54.321Z,13.15
2023-01-11T13:11:06.766Z,13.18
2023-01-11T13:13:15.080Z,13.19
2023-01-11T13:15:27.465Z,13.19
2023-01-11T13:17:41.023Z,13.14
2023-01-11T13:19:51.382Z,13.16
2023-01-11T13:21:55.732Z,13.17
2023-01-11T13:24:01.880Z,13.23
2023-01-11T13:26:16.947Z,13.17
2023-01-11T13:28:31.093Z,13.21
2023-01-11T13:30:36.099Z,13.16
2023-01-11T13:32:41.693Z,13.12
2023-01-11T13:34:48.342Z,13.21
2023-01-11T13:36:55.523Z,13.21
2023-01-11T13:39:02.445Z,13.18
2023-01-11T13:41:14.013Z,13.22
2023-01-11T13:43:20.485Z,13.18
2023-01-11T13:45:26.679Z,13.21
2023-01-11T13:47:34.213Z,13.25
2023-01-11T13:49:48.048Z,13.23
2023-01-11T13:51:57.092Z,13.31
2023-01-11T13:54:08.936Z,13.31
2023-01-11T13:56:17.852Z,13.33
2023-01-11T13:58:25.477Z,13.37
2023-01-11T14:00:33.262Z,13.41
2023-01-11T14:02:42.188Z,13.41
2023-01-11T14:04:52.965Z,13.48
2023-01-11T14:07:07.858Z,13.51
2023-01-11T14:09:34.011Z,13.51
2023-01-11T14:11:46.070Z,13.56
2023-01-11T14:14:03.975Z,13.54
2023-01-11T14:16:12.191Z,13.40
2023-01-11T14:18:27.347Z,13.47
2023-01-11T14:20:40.677Z,13.47
2023-01-11T14:22:48.582Z,13.50
2023-01-11T14:24:57.326Z,13.49
2023-01-11T14:27:27.866Z,13.52
2023-01-11T14:29:59.377Z,13.49
2023-01-11T14:32:13.507Z,13.49
2023-01-11T14:34:53.075Z,13.52
2023-01-11T14:37:34.535Z,13.52
2023-01-11T14:40:06.007Z,13.49
2023-01-11T14:42:32.012Z,13.46
2023-01-11T14:45:10.362Z,13.48
2023-01-11T14:47:33.162Z,13.45
2023-01-11T14:49:53.731Z,13.45
2023-01-11T14:52:00.245Z,13.44
2023-01-11T14:54:07.540Z,13.41
2023-01-11T14:56:47.392Z,13.46
2023-01-11T14:59:02.503Z,13.49
2023-01-11T15:01:11.755Z,13.49
2023-01-11T15:03:35.084Z,13.48
2023-01-11T15:05:38.853Z,13.46
2023-01-11T15:07:41.795Z,13.47
2023-01-11T15:09:46.705Z,13.49
2023-01-11T15:11:49.876Z,13.48
2023-01-11T15:13:56.505Z,13.48
2023-01-11T15:16:17.856Z,13.49
2023-01-11T15:18:30.028Z,13.48
2023-01-11T15:20:31.939Z,13.47
2023-01-11T15:22:36.822Z,13.47
2023-01-11T15:24:43.573Z,13.45
2023-01-11T15:26:49.792Z,13.49
2023-01-11T15:28:55.380Z,13.48
2023-01-11T15:30:57.256Z,13.48
2023-01-11T15:33:29.413Z,13.51
2023-01-11T15:35:33.429Z,13.46
2023-01-11T15:37:50.765Z,13.44
2023-01-11T15:39:57.998Z,13.47
2023-01-11T15:42:22.014Z,13.49
2023-01-11T15:44:45.862Z,13.53
2023-01-11T15:47:15.057Z,13.54
2023-01-11T15:49:52.318Z,13.53
2023-01-11T15:52:16.747Z,13.51
2023-01-11T15:54:44.886Z,13.47
2023-01-11T15:57:17.387Z,13.48
2023-01-11T15:59:48.528Z,13.46
2023-01-11T16:02:19.877Z,13.48
2023-01-11T16:04:30.532Z,13.47
2023-01-11T16:06:46.309Z,13.47
2023-01-11T16:08:55.499Z,13.42
2023-01-11T16:11:18.757Z,13.50
2023-01-11T16:13:36.213Z,13.41
2023-01-11T16:15:56.862Z,13.41
2023-01-11T16:18:10.607Z,13.41
2023-01-11T16:20:29.718Z,13.45
2023-01-11T16:22:31.501Z,13.38
2023-01-11T16:24:40.881Z,13.39
2023-01-11T16:26:44.036Z,13.44
2023-01-11T16:28:53.146Z,13.44
2023-01-11T16:30:57.015Z,13.47
2023-01-11T16:33:23.134Z,13.50
2023-01-11T16:35:25.637Z,13.47
2023-01-11T16:37:31.561Z,13.47
2023-01-11T16:39:33.691Z,13.46
2023-01-11T16:41:44.903Z,13.43
2023-01-11T16:43:59.807Z,13.45
2023-01-11T16:46:01.566Z,13.45
2023-01-11T16:48:06.136Z,13.43
2023-01-11T16:50:19.317Z,13.41
2023-01-11T16:52:43.207Z,13.38
2023-01-11T16:54:45.463Z,13.41
2023-01-11T16:56:48.216Z,13.37
2023-01-11T16:59:09.370Z,13.32
2023-01-11T17:01:12.722Z,13.31
2023-01-11T17:03:33.185Z,13.26
2023-01-11T17:05:37.508Z,13.21
2023-01-11T17:07:43.169Z,13.20
2023-01-11T17:09:44.959Z,13.17
2023-01-11T17:11:48.678Z,13.13
2023-01-11T17:14:16.355Z,13.08
2023-01-11T17:16:19.788Z,13.00
2023-01-11T17:18:21.790Z,13.02
2023-01-11T17:20:29.635Z,13.00
2023-01-11T17:22:33.764Z,12.90
2023-01-11T17:24:47.992Z,12.89
2023-01-11T17:26:52.931Z,12.90
2023-01-11T17:28:59.956Z,12.82
2023-01-11T17:31:04.286Z,12.76
2023-01-11T17:33:06.068Z,12.76
2023-01-11T17:35:16.489Z,12.75
2023-01-11T17:37:22.123Z,12.82
2023-01-11T17:39:26.042Z,12.80
2023-01-11T17:41:31.120Z,12.82
2023-01-11T17:43:32.858Z,12.83
2023-01-11T17:45:35.542Z,12.78
2023-01-11T17:47:40.821Z,12.68
2023-01-11T17:49:42.814Z,12.66
2023-01-11T17:51:45.898Z,12.67
2023-01-11T17:53:49.799Z,12.61
2023-01-11T17:55:52.973Z,12.61
2023-01-11T17:58:19.378Z,12.62
2023-01-11T18:00:27.100Z,12.56
2023-01-11T18:02:29.437Z,12.56
2023-01-11T18:04:32.558Z,12.52
2023-01-11T18:06:36.112Z,12.56
2023-01-11T18:08:48.540Z,12.57
2023-01-11T18:10:53.374Z,12.56
2023-01-11T18:12:59.438Z,12.58
2023-01-11T18:15:06.105Z,12.57
2023-01-11T18:17:31.318Z,12.58
2023-01-11T18:19:41.699Z,12.55
2023-01-11T18:21:52.217Z,12.57
2023-01-11T18:24:22.575Z,12.57
2023-01-11T18:26:58.702Z,12.55
2023-01-11T18:28:55.167Z,12.52
2023-01-11T18:30:59.503Z,12.49
2023-01-11T18:33:03.375Z,12.46
2023-01-11T18:35:16.376Z,12.48
2023-01-11T18:37:19.979Z,12.43
2023-01-11T18:39:21.728Z,12.38
2023-01-11T18:41:23.391Z,12.37
2023-01-11T18:43:28.090Z,12.39
2023-01-11T18:45:29.999Z,12.36
2023-01-11T18:47:32.973Z,12.35
2023-01-11T18:49:34.815Z,12.28
2023-01-11T18:51:38.736Z,12.27
2023-01-11T18:53:43.959Z,12.18
2023-01-11T18:55:46.790Z,12.19
2023-01-11T19:00:08.089Z,12.23
2023-01-11T19:02:22.854Z,12.28
2023-01-11T19:04:41.483Z,12.16
2023-01-11T19:06:50.171Z,12.21
2023-01-11T19:09:08.951Z,12.23
2023-01-11T19:11:10.743Z,12.21
2023-01-11T19:13:15.326Z,12.19
2023-01-11T19:15:17.597Z,12.10
2023-01-11T19:17:19.234Z,12.14
2023-01-11T19:19:20.923Z,12.08
2023-01-11T19:21:22.940Z,12.01
2023-01-11T19:23:26.267Z,12.02
2023-01-11T19:25:33.145Z,11.98
2023-01-11T19:27:50.540Z,11.92
2023-01-11T19:30:15.343Z,11.90
2023-01-11T19:32:17.035Z,11.93
2023-01-11T19:34:19.478Z,11.85
2023-01-11T19:36:39.083Z,11.91
2023-01-11T19:38:55.924Z,11.87
2023-01-11T19:41:05.051Z,11.95
2023-01-11T19:43:06.854Z,11.97
2023-01-11T19:45:10.960Z,11.90
2023-01-11T19:47:14.915Z,11.93
2023-01-11T19:49:23.026Z,11.97
2023-01-11T19:51:27.804Z,12.00
2023-01-11T19:53:39.129Z,11.99
2023-01-11T19:55:42.236Z,12.05
2023-01-11T19:58:07.312Z,12.05
2023-01-11T20:00:11.681Z,12.06
2023-01-11T20:02:20.751Z,12.10
2023-01-11T20:04:22.521Z,12.06
2023-01-11T20:06:46.174Z,12.09
2023-01-11T20:08:54.652Z,11.96
2023-01-11T20:10:57.738Z,11.99
2023-01-11T20:13:02.410Z,12.04
2023-01-11T20:15:08.581Z,12.05
2023-01-11T20:17:29.026Z,12.06
2023-01-11T20:19:59.838Z,12.00
2023-01-11T20:22:04.160Z,11.91
2023-01-11T20:24:14.458Z,11.84
2023-01-11T20:26:18.188Z,11.79
2023-01-11T20:28:21.450Z,11.75
2023-01-11T20:30:34.620Z,11.75
2023-01-11T20:32:42.396Z,11.69
2023-01-11T20:34:48.063Z,11.63
2023-01-11T20:36:49.849Z,11.71
2023-01-11T20:38:53.005Z,11.66
2023-01-11T20:40:55.049Z,11.66
2023-01-11T20:43:01.121Z,11.71
2023-01-11T20:45:11.371Z,11.68
2023-01-11T20:47:14.682Z,11.70
2023-01-11T20:49:17.272Z,11.77
2023-01-11T20:51:26.570Z,11.75
2023-01-11T20:53:31.367Z,11.70
2023-01-11T20:55:40.573Z,11.70
2023-01-11T20:57:45.087Z,11.69
2023-01-11T20:59:51.038Z,11.66
2023-01-11T21:01:54.898Z,11.62
2023-01-11T21:04:01.848Z,11.56
2023-01-11T21:06:04.034Z,11.58
2023-01-11T21:08:08.109Z,11.56
2023-01-11T21:10:11.375Z,11.53
2023-01-11T21:12:15.677Z,11.46
2023-01-11T21:14:17.588Z,11.45
2023-01-11T21:16:22.199Z,11.42
2023-01-11T21:18:23.951Z,11.44
2023-01-11T21:20:27.494Z,11.39
2023-01-11T21:22:32.303Z,11.35
2023-01-11T21:24:33.998Z,11.37
2023-01-11T21:26:36.052Z,11.38
2023-01-11T21:28:37.972Z,11.38
2023-01-11T21:30:39.648Z,11.29
2023-01-11T21:32:42.655Z,11.32
2023-01-11T21:34:45.990Z,11.29
2023-01-11T21:36:47.701Z,11.27
2023-01-11T21:38:49.569Z,11.25
2023-01-11T21:40:51.199Z,11.30
2023-01-11T21:42:53.040Z,11.33
2023-01-11T21:46:05.515Z,11.37
2023-01-11T21:47:17.981Z,11.31
2023-01-11T21:49:21.169Z,11.31
2023-01-11T21:51:22.829Z,11.24
2023-01-11T21:53:29.923Z,11.25
2023-01-11T21:55:31.634Z,11.24
2023-01-11T21:57:33.322Z,11.19
2023-01-11T21:59:35.053Z,11.13
2023-01-11T22:01:37.705Z,11.15
2023-01-11T22:04:10.665Z,11.17
2023-01-11T22:06:14.270Z,11.14
2023-01-11T22:08:21.039Z,11.12
2023-01-11T22:10:23.036Z,11.06
2023-01-11T22:12:24.705Z,11.06
2023-01-11T22:14:26.574Z,11.05
2023-01-11T22:16:29.358Z,11.00
2023-01-11T22:18:31.810Z,11.07
2023-01-11T22:20:34.478Z,11.05
2023-01-11T22:22:37.648Z,11.09
2023-01-11T22:24:42.356Z,11.10
2023-01-11T22:26:44.172Z,11.12
2023-01-11T22:28:47.030Z,11.07
2023-01-11T22:30:48.974Z,11.05
2023-01-11T22:32:50.676Z,11.05
2023-01-11T22:34:52.324Z,11.01
2023-01-11T22:36:54.120Z,11.05
2023-01-11T22:38:57.357Z,11.04
2023-01-11T22:40:59.502Z,11.05
2023-01-11T22:43:01.187Z,11.11
2023-01-11T22:45:03.201Z,11.15
2023-01-11T22:47:05.248Z,11.15
2023-01-11T22:49:07.656Z,11.15
2023-01-11T22:51:11.150Z,11.17
2023-01-11T22:53:14.209Z,11.15
2023-01-11T22:55:17.315Z,11.12
2023-01-11T22:57:18.943Z,11.10
2023-01-11T22:59:20.569Z,11.07
2023-01-11T23:01:24.056Z,11.09
2023-01-11T23:03:25.714Z,11.10
2023-01-11T23:05:27.454Z,11.12
2023-01-11T23:07:29.181Z,11.09
2023-01-11T23:09:30.935Z,11.11
2023-01-11T23:11:36.670Z,11.18
2023-01-11T23:13:38.375Z,11.16
2023-01-11T23:15:40.053Z,11.23
2023-01-11T23:17:41.618Z,11.25
2023-01-11T23:19:46.377Z,11.23
2023-01-11T23:21:50.382Z,11.25
2023-01-11T23:23:52.277Z,11.30
2023-01-11T23:25:54.256Z,11.27
2023-01-11T23:27:57.419Z,11.23
2023-01-11T23:29:59.058Z,11.29
2023-01-11T23:32:00.799Z,11.32
2023-01-11T23:34:03.834Z,11.38
2023-01-11T23:36:07.302Z,11.35
2023-01-11T23:38:08.945Z,11.39
2023-01-11T23:40:11.934Z,11.38
2023-01-11T23:42:13.835Z,11.35
2023-01-11T23:44:17.527Z,11.39
2023-01-11T23:46:19.846Z,11.42
2023-01-11T23:48:21.492Z,11.38
2023-01-11T23:50:23.178Z,11.36
2023-01-11T23:52:28.922Z,11.40
2023-01-11T23:54:32.789Z,11.41
2023-01-11T23:56:35.680Z,11.36
2023-01-11T23:58:37.309Z,11.39
